Time;durP1;ratioP1;P1;durP2;ratioP2;P2;SDS_P1;SDS_P2;PMS_P1;PMS_P2;Temp;Humidity;BMP_temperature;BMP_pressure;BME280_temperature;BME280_humidity;BME280_pressure;Samples;Min_cycle;Max_cycle;Signal;HPM_P1;HPM_P2
2021/05/08 00:01:36;;;;;;;7.87;2.90;;;;;;;14.74;100.00;95284.94;5133340;27;20231;-83
2021/05/08 00:04:04;;;;;;;4.63;2.80;;;;;;;14.88;100.00;95281.22;5131952;27;20272;-83
2021/05/08 00:06:33;;;;;;;3.30;2.90;;;;;;;14.78;100.00;95294.06;5132314;27;20216;-83
2021/05/08 00:09:01;;;;;;;3.93;2.90;;;;;;;14.77;100.00;95281.88;5133064;27;20203;-83
2021/05/08 00:11:28;;;;;;;3.87;2.73;;;;;;;14.89;100.00;95272.25;5133451;27;20305;-83
2021/05/08 00:13:54;;;;;;;5.93;2.97;;;;;;;14.97;100.00;95290.56;5133035;27;20286;-83
2021/05/08 00:16:22;;;;;;;4.57;3.37;;;;;;;15.10;100.00;95283.56;5133327;27;20218;-83
2021/05/08 00:18:49;;;;;;;3.57;2.80;;;;;;;15.16;100.00;95277.44;5133239;27;20234;-82
2021/05/08 00:21:16;;;;;;;7.00;3.60;;;;;;;15.05;100.00;95275.47;5133369;27;20286;-83
2021/05/08 00:23:42;;;;;;;4.53;2.80;;;;;;;14.87;100.00;95255.78;5132781;27;20225;-83
2021/05/08 00:26:09;;;;;;;5.80;2.93;;;;;;;14.90;100.00;95228.09;5132937;27;20286;-83
2021/05/08 00:28:36;;;;;;;3.40;2.73;;;;;;;15.02;100.00;95212.38;5133165;27;20716;-84
2021/05/08 00:31:03;;;;;;;7.07;2.90;;;;;;;14.97;100.00;95258.81;5132940;27;20278;-83
2021/05/08 00:33:31;;;;;;;4.67;3.00;;;;;;;14.76;100.00;95235.28;5132794;27;20239;-83
2021/05/08 00:35:57;;;;;;;6.93;3.60;;;;;;;14.90;100.00;95223.63;5132775;27;20232;-83
2021/05/08 00:38:24;;;;;;;4.07;3.10;;;;;;;14.91;100.00;95225.25;5132734;27;20195;-82
2021/05/08 00:40:51;;;;;;;3.73;3.37;;;;;;;14.96;100.00;95216.66;5132835;27;20199;-83
2021/05/08 00:43:18;;;;;;;3.43;2.50;;;;;;;15.14;100.00;95210.69;5132709;27;20203;-83
2021/05/08 00:45:45;;;;;;;3.43;3.13;;;;;;;15.09;100.00;95198.06;5132656;27;20194;-83
2021/05/08 00:48:13;;;;;;;4.00;3.00;;;;;;;15.16;100.00;95201.50;5132944;27;20615;-83
2021/05/08 00:50:42;;;;;;;3.07;2.80;;;;;;;14.97;100.00;95205.06;5132706;27;20684;-83
2021/05/08 00:53:10;;;;;;;4.93;3.27;;;;;;;14.77;100.00;95172.63;5132647;27;20258;-83
2021/05/08 00:55:38;;;;;;;4.67;3.17;;;;;;;14.85;100.00;95133.50;5132812;27;20282;-83
2021/05/08 00:58:06;;;;;;;4.00;2.80;;;;;;;15.10;100.00;95130.06;5134704;27;20234;-83
2021/05/08 01:00:34;;;;;;;5.27;3.20;;;;;;;15.17;100.00;95136.13;5136750;27;20188;-82
2021/05/08 01:03:00;;;;;;;3.47;3.17;;;;;;;15.12;100.00;95144.72;5136416;27;20239;-82
2021/05/08 01:05:32;;;;;;;3.93;3.53;;;;;;;15.17;100.00;95139.59;5136681;27;20232;-83
2021/05/08 01:08:01;;;;;;;10.83;3.30;;;;;;;14.99;100.00;95134.22;5136242;27;20213;-82
2021/05/08 01:10:28;;;;;;;7.77;3.50;;;;;;;14.89;100.00;95113.50;5136582;27;20197;-82
2021/05/08 01:12:55;;;;;;;3.17;2.93;;;;;;;14.61;100.00;95118.38;5136319;27;20193;-83
2021/05/08 01:15:22;;;;;;;3.13;2.77;;;;;;;14.60;100.00;95071.81;5136785;27;20194;-83
2021/05/08 01:17:49;;;;;;;3.00;2.60;;;;;;;14.61;100.00;95079.50;5136220;27;20295;-82
2021/05/08 01:20:16;;;;;;;5.63;3.03;;;;;;;14.70;100.00;95072.16;5136701;27;20274;-83
2021/05/08 01:22:44;;;;;;;3.77;3.07;;;;;;;14.82;100.00;95081.00;5136413;27;20191;-83
2021/05/08 01:25:14;;;;;;;6.83;3.63;;;;;;;14.89;100.00;95092.34;5136125;27;20206;-82
2021/05/08 01:27:46;;;;;;;4.60;3.33;;;;;;;14.85;100.00;95100.94;5136278;27;20271;-81
2021/05/08 01:30:15;;;;;;;4.00;3.60;;;;;;;14.91;100.00;95100.09;5135998;27;20195;-82
2021/05/08 01:32:42;;;;;;;6.10;3.30;;;;;;;14.75;100.00;95104.03;5135925;27;20664;-82
2021/05/08 01:35:10;;;;;;;2.83;2.50;;;;;;;14.86;100.00;95098.09;5135930;27;20195;-82
2021/05/08 01:37:37;;;;;;;3.50;3.17;;;;;;;14.92;100.00;95099.06;5135659;27;20248;-82
2021/05/08 01:40:10;;;;;;;3.70;2.53;;;;;;;14.74;100.00;95092.66;5135857;27;20704;-83
2021/05/08 01:42:38;;;;;;;3.50;2.77;;;;;;;14.94;100.00;95094.38;5135907;27;20629;-82
2021/05/08 01:45:13;;;;;;;4.80;2.67;;;;;;;14.94;100.00;95091.72;5135682;27;20235;-81
2021/05/08 01:47:40;;;;;;;2.83;2.63;;;;;;;14.90;100.00;95088.69;5135395;27;20761;-82
2021/05/08 01:50:10;;;;;;;2.87;2.67;;;;;;;14.89;100.00;95091.53;5135624;27;20199;-82
2021/05/08 01:52:37;;;;;;;8.23;4.03;;;;;;;14.65;100.00;95101.06;5135705;27;20195;-82
2021/05/08 01:55:07;;;;;;;3.60;3.30;;;;;;;14.50;100.00;95086.28;5135585;27;20255;-82
2021/05/08 01:57:39;;;;;;;4.83;3.03;;;;;;;14.52;100.00;95058.84;5135406;27;20218;-83
2021/05/08 02:00:09;;;;;;;4.63;3.07;;;;;;;14.22;100.00;95017.09;5135580;27;20662;-82
2021/05/08 02:02:36;;;;;;;3.03;2.80;;;;;;;14.14;100.00;94977.72;5135234;27;20183;-82
2021/05/08 02:05:06;;;;;;;3.37;3.13;;;;;;;13.60;100.00;94905.03;5135519;27;20215;-82
2021/05/08 02:07:33;;;;;;;6.33;3.13;;;;;;;13.97;100.00;94877.00;5135244;27;20219;-82
2021/05/08 02:10:00;;;;;;;4.30;2.90;;;;;;;13.84;100.00;94920.16;5134666;27;20670;-83
2021/05/08 02:12:34;;;;;;;5.63;3.07;;;;;;;13.98;100.00;94900.56;5135581;27;20366;-82
2021/05/08 02:15:01;;;;;;;3.23;2.93;;;;;;;14.00;100.00;94919.66;5135121;27;20187;-82
2021/05/08 02:17:27;;;;;;;4.43;3.00;;;;;;;14.22;100.00;94922.75;5135546;27;20196;-83
2021/05/08 02:19:54;;;;;;;3.40;3.10;;;;;;;14.20;100.00;94930.09;5135037;27;20281;-82
2021/05/08 02:22:21;;;;;;;3.30;3.00;;;;;;;14.34;100.00;94941.41;5135135;27;20250;-82
2021/05/08 02:24:48;;;;;;;3.23;2.80;;;;;;;14.21;100.00;94931.72;5134920;27;20206;-82
2021/05/08 02:27:15;;;;;;;5.30;3.47;;;;;;;14.18;100.00;94915.47;5134672;27;20314;-82
2021/05/08 02:29:43;;;;;;;4.73;3.27;;;;;;;14.46;100.00;94923.81;5134800;27;20195;-82
2021/05/08 02:32:10;;;;;;;7.30;3.20;;;;;;;14.52;100.00;94956.53;5134866;27;20335;-82
2021/05/08 02:34:37;;;;;;;3.90;3.07;;;;;;;14.44;100.00;94951.47;5134696;27;20706;-82
2021/05/08 02:37:03;;;;;;;6.23;3.37;;;;;;;14.59;100.00;94965.22;5134705;27;20290;-81
2021/05/08 02:39:30;;;;;;;5.70;3.20;;;;;;;14.22;100.00;94980.91;5134916;27;20621;-83
2021/05/08 02:41:57;;;;;;;4.10;3.07;;;;;;;13.92;100.00;94914.59;5135256;27;20682;-83
2021/05/08 02:44:24;;;;;;;3.27;2.80;;;;;;;13.96;100.00;94897.34;5134792;27;20282;-76
2021/05/08 02:46:52;;;;;;;2.90;2.50;;;;;;;14.20;100.00;95005.91;5134529;27;20191;-76
2021/05/08 02:49:18;;;;;;;2.83;2.40;;;;;;;14.31;100.00;95110.97;5134059;27;20204;-76
2021/05/08 02:51:45;;;;;;;2.57;2.27;;;;;;;14.28;100.00;95154.47;5134788;27;20222;-77
2021/05/08 02:54:12;;;;;;;3.87;2.40;;;;;;;14.44;100.00;95187.59;5134278;27;20222;-77
2021/05/08 02:56:39;;;;;;;4.43;2.60;;;;;;;14.42;100.00;95192.25;5134414;27;20751;-77
2021/05/08 02:59:06;;;;;;;5.07;2.10;;;;;;;14.66;100.00;95275.41;5134019;27;20192;-76
2021/05/08 03:01:33;;;;;;;3.93;2.20;;;;;;;14.78;100.00;95346.16;5133993;27;20205;-76
2021/05/08 03:04:01;;;;;;;3.57;2.07;;;;;;;14.83;100.00;95388.69;5133881;27;20232;-76
2021/05/08 03:06:27;;;;;;;2.33;1.80;;;;;;;14.91;100.00;95407.78;5134236;27;20282;-76
2021/05/08 03:08:54;;;;;;;2.33;2.10;;;;;;;14.91;100.00;95439.53;5133786;27;20717;-76
2021/05/08 03:11:21;;;;;;;2.33;2.17;;;;;;;14.94;100.00;95475.38;5133850;27;20202;-76
2021/05/08 03:13:48;;;;;;;4.23;2.20;;;;;;;15.07;100.00;95501.81;5134054;27;20186;-76
2021/05/08 03:16:15;;;;;;;4.70;2.37;;;;;;;15.06;100.00;95521.34;5134006;27;20230;-77
2021/05/08 03:18:41;;;;;;;4.70;2.20;;;;;;;15.11;100.00;95526.84;5133728;27;20226;-77
2021/05/08 03:21:09;;;;;;;3.30;2.40;;;;;;;15.20;100.00;95538.03;5132762;27;20328;-77
2021/05/08 03:23:36;;;;;;;2.93;2.07;;;;;;;15.30;100.00;95538.44;5133714;27;20285;-76
2021/05/08 03:26:03;;;;;;;2.43;2.23;;;;;;;15.17;100.00;95556.97;5133795;27;20201;-76
2021/05/08 03:28:30;;;;;;;4.07;2.50;;;;;;;15.19;100.00;95541.72;5133494;27;20230;-76
2021/05/08 03:30:56;;;;;;;2.77;2.30;;;;;;;15.05;100.00;95555.97;5133374;27;20196;-76
2021/05/08 03:33:23;;;;;;;2.60;2.40;;;;;;;15.06;100.00;95547.81;5133481;27;20199;-76
2021/05/08 03:35:50;;;;;;;4.00;2.57;;;;;;;15.10;100.00;95545.56;5133562;27;20210;-76
2021/05/08 03:38:18;;;;;;;3.73;2.10;;;;;;;15.23;100.00;95543.72;5133395;27;20224;-77
2021/05/08 03:40:45;;;;;;;6.77;2.20;;;;;;;15.28;100.00;95553.72;5133288;27;20234;-76
2021/05/08 03:43:12;;;;;;;5.10;1.93;;;;;;;15.42;100.00;95542.09;5133618;27;20281;-77
2021/05/08 03:45:39;;;;;;;2.70;2.50;;;;;;;15.33;100.00;95538.03;5133398;27;20199;-77
2021/05/08 03:48:06;;;;;;;3.23;2.40;;;;;;;15.46;100.00;95531.91;5127521;27;20228;-76
2021/05/08 03:50:33;;;;;;;2.40;2.20;;;;;;;15.51;100.00;95529.44;5132834;27;20202;-76
2021/05/08 03:53:00;;;;;;;2.33;2.17;;;;;;;15.42;100.00;95530.69;5132980;27;20318;-76
2021/05/08 03:55:27;;;;;;;3.73;2.57;;;;;;;15.09;100.00;95514.84;5132958;27;20286;-76
2021/05/08 03:57:54;;;;;;;5.63;2.13;;;;;;;15.04;100.00;95506.72;5132692;27;20552;-77
2021/05/08 04:00:22;;;;;;;6.10;3.20;;;;;;;15.13;100.00;95511.56;5133028;27;20703;-77
2021/05/08 04:05:35;;;;;;;2.60;2.17;;;;;;;15.24;100.00;95475.75;5128180;27;20556;-77
2021/05/08 04:08:02;;;;;;;3.50;2.87;;;;;;;15.44;100.00;95487.06;5133056;27;20249;-77
2021/05/08 04:10:30;;;;;;;5.20;3.60;;;;;;;15.42;100.00;95452.06;5132857;27;20196;-76
2021/05/08 04:12:56;;;;;;;6.50;3.90;;;;;;;15.32;100.00;95523.16;5132706;27;20673;-77
2021/05/08 04:15:23;;;;;;;4.87;3.13;;;;;;;15.07;100.00;95501.00;5132895;27;20631;-76
2021/05/08 04:17:50;;;;;;;4.03;3.07;;;;;;;15.52;100.00;95482.56;5133000;27;20200;-77
2021/05/08 04:20:17;;;;;;;5.33;3.10;;;;;;;15.59;100.00;95496.63;5132841;27;20668;-77
2021/05/08 04:22:44;;;;;;;3.07;2.37;;;;;;;15.76;100.00;95489.03;5132668;27;20365;-77
2021/05/08 04:25:12;;;;;;;5.43;2.80;;;;;;;15.73;100.00;95468.28;5133027;27;20198;-77
2021/05/08 04:27:40;;;;;;;5.70;3.03;;;;;;;15.62;100.00;95482.94;5132709;27;20301;-77
2021/05/08 04:30:08;;;;;;;5.67;3.30;;;;;;;15.49;100.00;95496.25;5132814;27;20253;-77
2021/05/08 04:32:35;;;;;;;4.97;3.47;;;;;;;15.45;100.00;95501.16;5134339;27;20285;-77
2021/05/08 04:35:02;;;;;;;3.83;3.27;;;;;;;15.52;100.00;95535.53;5136626;27;20318;-77
2021/05/08 04:37:28;;;;;;;6.30;4.30;;;;;;;15.45;100.00;95585.88;5136861;27;20199;-77
2021/05/08 04:39:56;;;;;;;5.60;3.73;;;;;;;15.53;100.00;95584.84;5136839;27;20284;-77
2021/05/08 04:42:23;;;;;;;8.30;3.73;;;;;;;15.58;100.00;95612.34;5136915;27;20561;-77
2021/05/08 04:44:52;;;;;;;5.63;4.17;;;;;;;15.72;100.00;95634.34;5136303;27;20692;-77
2021/05/08 04:47:20;;;;;;;5.50;3.23;;;;;;;15.73;100.00;95646.59;5136524;27;20205;-77
2021/05/08 04:49:47;;;;;;;5.37;3.67;;;;;;;15.74;100.00;95645.56;5136295;27;20201;-77
2021/05/08 04:52:14;;;;;;;5.13;4.10;;;;;;;15.73;100.00;95648.44;5136715;27;20232;-76
2021/05/08 04:54:41;;;;;;;7.07;4.00;;;;;;;15.78;100.00;95656.56;5136080;27;20208;-77
2021/05/08 04:57:08;;;;;;;4.97;4.17;;;;;;;15.84;100.00;95661.88;5136385;27;20760;-77
2021/05/08 04:59:34;;;;;;;5.57;4.10;;;;;;;15.75;100.00;95679.00;5136323;27;20572;-76
2021/05/08 05:02:03;;;;;;;4.50;3.90;;;;;;;15.71;100.00;95704.25;5136493;27;20287;-77
2021/05/08 05:04:29;;;;;;;5.90;4.47;;;;;;;15.72;100.00;95720.97;5136108;27;20584;-77
2021/05/08 05:06:56;;;;;;;4.90;4.10;;;;;;;15.80;100.00;95724.25;5136078;27;20284;-76
2021/05/08 05:09:27;;;;;;;4.83;4.23;;;;;;;15.82;100.00;95724.84;5135970;27;20220;-78
2021/05/08 05:11:53;;;;;;;5.47;4.67;;;;;;;15.77;100.00;95732.59;5127348;27;20615;-77
2021/05/08 05:14:20;;;;;;;5.23;4.83;;;;;;;15.84;100.00;95729.94;5115529;28;20208;-77
2021/05/08 05:16:47;;;;;;;4.97;4.50;;;;;;;15.74;100.00;95761.34;5114619;28;20257;-77
2021/05/08 05:19:15;;;;;;;6.20;4.30;;;;;;;15.80;100.00;95777.25;5114156;28;20195;-77
2021/05/08 05:21:41;;;;;;;6.00;4.90;;;;;;;15.89;100.00;95793.75;5114401;28;20794;-77
2021/05/08 05:24:11;;;;;;;5.27;4.67;;;;;;;15.96;100.00;95796.41;5114193;28;20197;-77
2021/05/08 05:26:37;;;;;;;5.37;4.83;;;;;;;15.80;100.00;95801.09;5129351;27;20283;-77
2021/05/08 05:29:06;;;;;;;6.27;5.67;;;;;;;16.07;100.00;95812.53;5134446;27;20220;-77
2021/05/08 05:31:32;;;;;;;5.43;4.60;;;;;;;16.24;100.00;95822.69;5134944;27;20208;-76
2021/05/08 05:33:59;;;;;;;6.07;5.23;;;;;;;16.07;100.00;95822.28;5135241;27;20203;-80
2021/05/08 05:36:27;;;;;;;5.10;4.70;;;;;;;16.18;100.00;95840.25;5134910;27;20342;-78
2021/05/08 05:38:54;;;;;;;6.67;4.87;;;;;;;16.19;100.00;95839.22;5134700;27;20190;-77
2021/05/08 05:41:21;;;;;;;8.67;6.90;;;;;;;16.32;100.00;95833.13;5134962;27;20196;-77
2021/05/08 05:43:47;;;;;;;11.43;10.03;;;;;;;16.23;100.00;95819.25;5133489;27;20240;-77
2021/05/08 05:46:14;;;;;;;22.87;19.50;;;;;;;16.32;100.00;95825.97;5134649;27;20289;-77
2021/05/08 05:48:41;;;;;;;10.80;9.70;;;;;;;16.23;100.00;95819.25;5134477;27;20225;-78
2021/05/08 05:51:08;;;;;;;8.93;8.07;;;;;;;16.34;100.00;95810.66;5134479;27;20200;-77
2021/05/08 05:53:36;;;;;;;5.60;5.13;;;;;;;16.36;100.00;95845.75;5134504;27;20197;-78
2021/05/08 05:56:03;;;;;;;11.77;7.17;;;;;;;16.46;100.00;95840.03;5134486;27;20228;-79
2021/05/08 05:58:30;;;;;;;7.97;5.30;;;;;;;16.63;100.00;95864.31;5134426;27;20219;-78
2021/05/08 06:00:57;;;;;;;5.87;4.47;;;;;;;16.62;100.00;95884.69;5134326;27;20227;-78
2021/05/08 06:03:24;;;;;;;5.80;5.17;;;;;;;16.69;100.00;95913.06;5134038;27;20324;-78
2021/05/08 06:05:51;;;;;;;5.37;4.87;;;;;;;16.75;100.00;95912.28;5134279;27;20202;-78
2021/05/08 06:08:17;;;;;;;6.30;4.53;;;;;;;16.76;100.00;95908.59;5134970;27;20579;-78
2021/05/08 06:10:45;;;;;;;6.70;5.20;;;;;;;16.69;100.00;95913.88;5135654;27;20610;-78
2021/05/08 06:13:12;;;;;;;6.73;6.10;;;;;;;16.77;100.00;95929.63;5135064;27;20641;-78
2021/05/08 06:15:39;;;;;;;8.63;7.83;;;;;;;16.84;100.00;95917.19;5135187;27;20233;-78
2021/05/08 06:18:06;;;;;;;5.20;4.57;;;;;;;16.98;100.00;95919.81;5134516;27;20246;-78
2021/05/08 06:20:33;;;;;;;4.43;4.13;;;;;;;17.11;100.00;95917.09;5135411;27;20198;-78
2021/05/08 06:23:00;;;;;;;5.20;4.50;;;;;;;17.22;100.00;95935.09;5135132;27;20302;-78
2021/05/08 06:25:27;;;;;;;4.43;4.10;;;;;;;17.27;100.00;95932.59;5134943;27;20224;-78
2021/05/08 06:27:55;;;;;;;5.07;3.73;;;;;;;17.39;100.00;95946.06;5134652;27;20704;-78
2021/05/08 06:30:22;;;;;;;8.37;3.30;;;;;;;17.68;100.00;95967.84;5134643;27;20229;-79
2021/05/08 06:32:49;;;;;;;4.30;3.70;;;;;;;17.72;100.00;95982.34;5135047;27;20343;-79
2021/05/08 06:35:16;;;;;;;6.43;4.33;;;;;;;17.89;100.00;95975.56;5134739;27;20285;-78
2021/05/08 06:37:43;;;;;;;4.50;4.10;;;;;;;17.86;100.00;95999.91;5134402;27;20684;-78
2021/05/08 06:40:10;;;;;;;5.00;4.13;;;;;;;17.86;100.00;95996.44;5134642;27;20741;-77
2021/05/08 06:42:37;;;;;;;3.90;3.60;;;;;;;17.93;100.00;95979.41;5134592;27;20311;-78
2021/05/08 06:45:06;;;;;;;5.27;4.37;;;;;;;17.88;100.00;96015.66;5134521;27;20230;-77
2021/05/08 06:47:32;;;;;;;5.93;3.40;;;;;;;17.92;100.00;96024.84;5134744;27;20198;-78
2021/05/08 06:49:59;;;;;;;8.93;5.77;;;;;;;17.92;100.00;96027.50;5131305;27;20234;-78
2021/05/08 06:52:26;;;;;;;7.77;4.90;;;;;;;18.05;100.00;96044.22;5132142;27;20202;-77
2021/05/08 06:54:53;;;;;;;4.40;4.03;;;;;;;17.97;100.00;96048.94;5133820;27;20210;-77
2021/05/08 06:57:20;;;;;;;6.90;6.20;;;;;;;17.92;100.00;96068.19;5134058;27;20231;-77
2021/05/08 06:59:46;;;;;;;6.37;4.13;;;;;;;17.72;100.00;96080.69;5133933;27;20241;-77
2021/05/08 07:02:14;;;;;;;8.47;4.63;;;;;;;17.82;100.00;96073.94;5134045;27;20289;-77
2021/05/08 07:04:41;;;;;;;7.23;4.93;;;;;;;17.83;100.00;96099.50;5133719;27;20239;-85
2021/05/08 07:07:08;;;;;;;8.80;5.80;;;;;;;17.71;100.00;96105.63;5134699;27;20631;-86
2021/05/08 07:09:34;;;;;;;5.43;4.93;;;;;;;17.51;100.00;96116.28;5134546;27;20222;-87
2021/05/08 07:12:01;;;;;;;14.93;9.23;;;;;;;17.77;100.00;96115.47;5134602;27;20290;-86
2021/05/08 07:14:28;;;;;;;11.80;7.63;;;;;;;18.03;100.00;96114.59;5134621;27;20437;-86
2021/05/08 07:16:55;;;;;;;10.23;6.50;;;;;;;17.76;100.00;96127.13;5134552;27;20202;-86
2021/05/08 07:19:22;;;;;;;15.47;11.23;;;;;;;17.99;100.00;96124.00;5134425;27;20191;-86
2021/05/08 07:21:49;;;;;;;16.37;10.70;;;;;;;17.89;100.00;96139.56;5134835;27;20226;-86
2021/05/08 07:24:16;;;;;;;12.33;6.60;;;;;;;17.92;100.00;96126.69;5133989;27;20680;-79
2021/05/08 07:26:42;;;;;;;4.87;4.53;;;;;;;17.46;100.00;96132.84;5133441;27;20639;-78
2021/05/08 07:29:09;;;;;;;4.87;4.13;;;;;;;17.47;100.00;96125.69;5134128;27;20221;-87
2021/05/08 07:31:36;;;;;;;5.10;4.20;;;;;;;17.57;100.00;96139.38;5134735;27;20282;-86
2021/05/08 07:34:03;;;;;;;4.47;4.03;;;;;;;17.61;100.00;96145.91;5134189;27;20198;-86
2021/05/08 07:36:31;;;;;;;4.53;3.90;;;;;;;17.73;100.00;96146.09;5134251;27;20577;-87
2021/05/08 07:38:58;;;;;;;3.83;3.53;;;;;;;17.61;100.00;96153.06;5134353;27;20201;-86
2021/05/08 07:41:24;;;;;;;6.27;3.90;;;;;;;17.18;100.00;96164.91;5134183;27;20194;-87
2021/05/08 07:43:51;;;;;;;7.33;6.13;;;;;;;17.20;100.00;96148.75;5134138;27;20289;-87
2021/05/08 07:46:18;;;;;;;5.57;5.03;;;;;;;17.20;100.00;96146.94;5134165;27;20195;-87
2021/05/08 07:48:45;;;;;;;8.80;5.80;;;;;;;17.05;100.00;96156.94;5133827;27;20726;-87
2021/05/08 07:51:12;;;;;;;13.47;12.07;;;;;;;17.22;100.00;96168.81;5133846;27;20237;-86
2021/05/08 07:53:39;;;;;;;5.17;4.30;;;;;;;17.26;100.00;96172.69;5133962;27;20201;-86
2021/05/08 07:56:07;;;;;;;4.10;3.40;;;;;;;17.42;100.00;96173.28;5133990;27;20261;-87
2021/05/08 07:58:33;;;;;;;3.77;3.47;;;;;;;17.48;100.00;96164.50;5134315;27;20277;-87
2021/05/08 08:01:00;;;;;;;3.60;3.23;;;;;;;17.59;100.00;96158.59;5134344;27;20635;-86
2021/05/08 08:03:27;;;;;;;4.07;3.67;;;;;;;17.61;100.00;96163.72;5133883;27;20313;-87
2021/05/08 08:05:54;;;;;;;3.40;3.10;;;;;;;17.64;100.00;96180.06;5134153;27;20750;-87
2021/05/08 08:08:21;;;;;;;5.70;3.77;;;;;;;17.57;100.00;96176.59;5132639;27;20263;-86
2021/05/08 08:10:48;;;;;;;4.87;3.50;;;;;;;17.44;100.00;96190.69;5133657;27;20203;-87
2021/05/08 08:13:15;;;;;;;5.33;4.83;;;;;;;17.49;100.00;96195.38;5133829;27;20190;-86
2021/05/08 08:15:42;;;;;;;7.70;3.97;;;;;;;17.33;100.00;96180.66;5133646;27;20240;-87
2021/05/08 08:18:10;;;;;;;7.47;3.73;;;;;;;17.55;100.00;96170.66;5133819;27;20587;-87
2021/05/08 08:20:37;;;;;;;3.87;2.83;;;;;;;17.61;100.00;96187.63;5133705;27;20195;-87
2021/05/08 08:23:03;;;;;;;3.93;3.53;;;;;;;17.96;100.00;96182.94;5133511;27;20239;-87
2021/05/08 08:25:30;;;;;;;4.97;3.53;;;;;;;18.14;100.00;96196.38;5135661;27;20598;-87
2021/05/08 08:27:58;;;;;;;3.90;3.60;;;;;;;18.63;100.00;96192.34;5134125;27;20301;-88
2021/05/08 08:30:25;;;;;;;2.90;2.70;;;;;;;18.95;100.00;96187.13;5134113;27;20332;-87
2021/05/08 08:32:52;;;;;;;3.67;2.80;;;;;;;18.78;100.00;96189.47;5133451;27;20230;-87
2021/05/08 08:35:18;;;;;;;5.17;4.47;;;;;;;18.87;100.00;96198.03;5133641;27;20191;-87
2021/05/08 08:37:45;;;;;;;4.20;2.30;;;;;;;18.60;100.00;96203.44;5133437;27;20662;-86
2021/05/08 08:40:13;;;;;;;7.67;3.30;;;;;;;18.54;100.00;96198.94;5133722;27;20226;-87
2021/05/08 08:42:40;;;;;;;4.53;2.73;;;;;;;18.61;100.00;96206.91;5133405;27;20237;-87
2021/05/08 08:45:08;;;;;;;2.53;2.40;;;;;;;18.52;100.00;96206.31;5133417;27;20286;-86
2021/05/08 08:47:36;;;;;;;3.23;2.93;;;;;;;18.47;100.00;96200.81;5133169;27;20195;-86
2021/05/08 08:50:05;;;;;;;2.87;2.67;;;;;;;18.28;100.00;96199.84;5133348;27;20226;-87
2021/05/08 08:52:32;;;;;;;4.47;3.40;;;;;;;18.47;100.00;96198.97;5133517;27;20199;-87
2021/05/08 08:54:59;;;;;;;3.00;2.80;;;;;;;18.41;100.00;96199.00;5133540;27;20191;-87
2021/05/08 08:57:29;;;;;;;4.37;3.93;;;;;;;18.75;100.00;96195.22;5133758;27;20638;-87
2021/05/08 08:59:58;;;;;;;12.70;5.80;;;;;;;18.98;100.00;96190.19;5133907;27;20194;-87
2021/05/08 09:02:27;;;;;;;7.87;5.53;;;;;;;18.92;100.00;96198.22;5133446;27;20312;-87
2021/05/08 09:04:57;;;;;;;3.60;3.30;;;;;;;18.75;100.00;96198.69;5133453;27;20269;-88
2021/05/08 09:07:27;;;;;;;4.00;3.60;;;;;;;18.70;100.00;96200.31;5133263;27;20237;-87
2021/05/08 09:09:54;;;;;;;2.90;2.70;;;;;;;18.51;100.00;96210.84;5133243;27;20226;-87
2021/05/08 09:12:26;;;;;;;4.53;3.10;;;;;;;18.73;100.00;96214.03;5133261;27;20843;-87
2021/05/08 09:14:53;;;;;;;2.63;2.43;;;;;;;18.84;100.00;96225.06;5133181;27;20187;-87
2021/05/08 09:17:22;;;;;;;5.00;2.17;;;;;;;18.65;100.00;96224.09;5133224;27;20193;-87
2021/05/08 09:19:58;;;;;;;1.93;1.83;;;;;;;17.94;100.00;96227.50;5136560;27;20686;-87
2021/05/08 09:22:28;;;;;;;2.33;2.10;;;;;;;18.11;100.00;96225.25;5137181;27;20208;-86
2021/05/08 09:25:01;;;;;;;2.30;2.10;;;;;;;17.82;100.00;96232.63;5136916;27;20670;-87
2021/05/08 09:27:50;;;;;;;2.20;2.00;;;;;;;18.01;100.00;96230.97;5137027;27;20233;-87
2021/05/08 09:30:20;;;;;;;5.43;2.00;;;;;;;17.92;100.00;96221.59;5132860;27;20270;-87
2021/05/08 09:32:49;;;;;;;3.80;2.20;;;;;;;17.85;100.00;96220.78;5141250;27;20208;-86
2021/05/08 09:35:19;;;;;;;2.97;1.70;;;;;;;17.76;100.00;96220.97;5136474;27;20282;-86
2021/05/08 09:37:46;;;;;;;1.93;1.83;;;;;;;17.77;100.00;96219.16;5136552;27;20230;-87
2021/05/08 09:40:22;;;;;;;3.83;3.40;;;;;;;17.77;100.00;96219.16;5137002;27;20282;-86
2021/05/08 09:42:51;;;;;;;1.70;1.60;;;;;;;17.41;100.00;96227.47;5136496;27;20179;-86
2021/05/08 09:45:20;;;;;;;2.87;2.30;;;;;;;17.81;100.00;96226.50;5136937;27;20655;-87
2021/05/08 09:47:47;;;;;;;2.00;1.80;;;;;;;17.91;100.00;96222.59;5136649;27;20636;-87
2021/05/08 09:50:15;;;;;;;3.73;1.90;;;;;;;17.75;100.00;96232.59;5136432;27;20243;-87
2021/05/08 09:52:48;;;;;;;2.23;2.00;;;;;;;17.54;100.00;96240.75;5136265;27;20698;-87
2021/05/08 09:55:16;;;;;;;1.80;1.53;;;;;;;17.44;100.00;96235.03;5136244;27;20182;-86
2021/05/08 09:57:56;;;;;;;1.80;1.70;;;;;;;17.65;100.00;96237.50;5136066;27;20237;-87
2021/05/08 10:00:37;;;;;;;1.87;1.77;;;;;;;17.57;100.00;96243.03;5136614;27;20218;-87
2021/05/08 10:03:10;;;;;;;6.40;1.70;;;;;;;17.46;100.00;96248.94;5136232;27;20269;-87
2021/05/08 10:05:37;;;;;;;4.27;2.13;;;;;;;17.80;100.00;96256.78;5136226;27;20194;-87
2021/05/08 10:08:06;;;;;;;2.33;2.07;;;;;;;17.79;100.00;96255.13;5136155;27;20275;-87
2021/05/08 10:10:34;;;;;;;3.07;2.07;;;;;;;17.99;100.00;96249.00;5136124;27;20285;-87
2021/05/08 10:13:07;;;;;;;2.60;1.40;;;;;;;17.67;100.00;96262.06;5136396;27;20226;-87
2021/05/08 10:15:35;;;;;;;4.50;3.10;;;;;;;17.90;100.00;96252.88;5135926;27;20183;-87
2021/05/08 10:18:05;;;;;;;6.33;2.20;;;;;;;17.92;100.00;96261.47;5135827;27;20195;-87
2021/05/08 10:20:32;;;;;;;1.50;1.40;;;;;;;17.63;100.00;96265.28;5135669;27;20205;-85
2021/05/08 10:23:04;;;;;;;2.00;1.80;;;;;;;17.54;100.00;96265.50;5135592;27;20202;-86
2021/05/08 10:25:32;;;;;;;3.10;2.43;;;;;;;17.81;100.00;96258.41;5135849;27;20187;-86
2021/05/08 10:27:59;;;;;;;3.40;2.23;;;;;;;17.70;100.00;96269.63;5135597;27;20282;-86
2021/05/08 10:30:31;;;;;;;5.90;2.23;;;;;;;17.45;100.00;96269.34;5135000;27;20202;-86
2021/05/08 10:32:59;;;;;;;1.97;1.77;;;;;;;17.20;100.00;96268.28;5135288;27;20179;-86
2021/05/08 10:35:39;;;;;;;1.97;1.87;;;;;;;17.18;100.00;96262.34;5135129;27;20194;-85
2021/05/08 10:38:20;;;;;;;2.10;1.90;;;;;;;17.72;100.00;96253.44;5135167;27;20182;-85
2021/05/08 10:40:57;;;;;;;1.90;1.80;;;;;;;17.97;100.00;96249.19;5135449;27;20183;-86
2021/05/08 10:43:46;;;;;;;1.53;1.43;;;;;;;18.21;100.00;96230.97;5135498;27;20617;-85
2021/05/08 10:46:14;;;;;;;1.60;1.50;;;;;;;18.29;100.00;96244.88;5135765;27;20179;-85
2021/05/08 10:49:18;;;;;;;1.97;1.87;;;;;;;18.26;100.00;96247.94;5135311;27;20305;-86
2021/05/08 10:51:58;;;;;;;2.00;1.70;;;;;;;18.49;100.00;96250.13;5135501;27;20580;-87
2021/05/08 10:54:56;;;;;;;1.80;1.70;;;;;;;18.23;100.00;96269.63;5135244;27;20190;-86
2021/05/08 10:57:26;;;;;;;1.80;1.70;;;;;;;18.10;100.00;96272.31;5134907;27;20225;-85
2021/05/08 11:00:28;;;;;;;2.23;1.90;;;;;;;18.36;100.00;96247.53;5134756;27;20195;-85
2021/05/08 11:03:04;;;;;;;2.13;2.00;;;;;;;18.27;100.00;96268.19;5134999;27;20241;-86
2021/05/08 11:05:34;;;;;;;1.93;1.57;;;;;;;18.34;100.00;96267.38;5134968;27;20209;-85
2021/05/08 11:08:43;;;;;;;1.90;1.80;;;;;;;18.41;100.00;96270.84;5134586;27;20226;-85
2021/05/08 11:11:12;;;;;;;1.63;1.53;;;;;;;18.25;100.00;96280.91;5134839;27;20189;-87
2021/05/08 11:14:04;;;;;;;2.17;1.40;;;;;;;17.91;100.00;96284.59;5135365;27;20195;-87
2021/05/08 11:16:31;;;;;;;1.50;1.40;;;;;;;18.03;100.00;96282.13;5135165;27;20234;-86
2021/05/08 11:18:59;;;;;;;3.40;1.20;;;;;;;17.96;100.00;96294.59;5134935;27;20224;-87
2021/05/08 11:22:03;;;;;;;1.20;1.13;;;;;;;17.76;100.00;96295.41;5134645;27;20255;-86
2021/05/08 11:24:35;;;;;;;1.27;0.90;;;;;;;17.69;100.00;96286.56;5134852;27;20193;-87
2021/05/08 11:27:01;;;;;;;0.90;0.90;;;;;;;17.67;100.00;96288.63;5134966;27;20639;-86
2021/05/08 11:29:31;;;;;;;1.10;1.00;;;;;;;17.44;100.00;96299.59;5135244;27;20265;-87
2021/05/08 11:31:59;;;;;;;1.20;1.10;;;;;;;17.26;100.00;96310.81;5134482;27;20255;-87
2021/05/08 11:34:26;;;;;;;0.90;0.90;;;;;;;17.32;100.00;96311.84;5134649;27;20787;-87